sensor_id;sensor_type;location;lat;lon;timestamp;P1;durP1;ratioP1;P2;durP2;ratioP2
53207;SDS011;39093;52.788;6.940;2023-08-12T00:02:05;8.50;;;5.40;;
53207;SDS011;39093;52.788;6.940;2023-08-12T00:04:32;11.48;;;6.45;;
53207;SDS011;39093;52.788;6.940;2023-08-12T00:06:59;15.23;;;8.02;;
53207;SDS011;39093;52.788;6.940;2023-08-12T00:09:26;17.35;;;7.80;;
53207;SDS011;39093;52.788;6.940;2023-08-12T00:11:53;15.82;;;10.23;;
53207;SDS011;39093;52.788;6.940;2023-08-12T00:14:20;15.20;;;9.95;;
53207;SDS011;39093;52.788;6.940;2023-08-12T00:16:46;14.43;;;9.35;;
53207;SDS011;39093;52.788;6.940;2023-08-12T00:19:13;13.50;;;9.73;;
53207;SDS011;39093;52.788;6.940;2023-08-12T00:21:40;14.18;;;8.88;;
53207;SDS011;39093;52.788;6.940;2023-08-12T00:24:08;15.82;;;10.10;;
53207;SDS011;39093;52.788;6.940;2023-08-12T00:26:35;18.38;;;9.70;;
53207;SDS011;39093;52.788;6.940;2023-08-12T00:29:02;13.93;;;9.73;;
53207;SDS011;39093;52.788;6.940;2023-08-12T00:31:29;15.73;;;9.73;;
53207;SDS011;39093;52.788;6.940;2023-08-12T00:33:56;17.77;;;9.93;;
53207;SDS011;39093;52.788;6.940;2023-08-12T00:36:22;20.02;;;9.90;;
53207;SDS011;39093;52.788;6.940;2023-08-12T00:38:49;17.63;;;9.77;;
53207;SDS011;39093;52.788;6.940;2023-08-12T00:41:16;12.30;;;8.57;;
53207;SDS011;39093;52.788;6.940;2023-08-12T00:43:43;17.75;;;10.40;;
53207;SDS011;39093;52.788;6.940;2023-08-12T00:46:10;19.27;;;10.80;;
53207;SDS011;39093;52.788;6.940;2023-08-12T00:48:38;21.58;;;11.20;;
53207;SDS011;39093;52.788;6.940;2023-08-12T00:51:06;15.18;;;9.63;;
53207;SDS011;39093;52.788;6.940;2023-08-12T00:53:33;17.30;;;10.40;;
53207;SDS011;39093;52.788;6.940;2023-08-12T00:56:01;16.33;;;10.60;;
53207;SDS011;39093;52.788;6.940;2023-08-12T00:58:28;16.02;;;9.43;;
53207;SDS011;39093;52.788;6.940;2023-08-12T01:00:56;16.67;;;10.32;;
53207;SDS011;39093;52.788;6.940;2023-08-12T01:03:23;17.25;;;10.40;;
53207;SDS011;39093;52.788;6.940;2023-08-12T01:05:50;14.25;;;10.43;;
53207;SDS011;39093;52.788;6.940;2023-08-12T01:08:17;19.17;;;10.90;;
53207;SDS011;39093;52.788;6.940;2023-08-12T01:10:45;20.17;;;10.63;;
53207;SDS011;39093;52.788;6.940;2023-08-12T01:16:16;17.23;;;10.02;;
53207;SDS011;39093;52.788;6.940;2023-08-12T01:18:45;15.73;;;9.35;;
53207;SDS011;39093;52.788;6.940;2023-08-12T01:21:15;18.58;;;10.55;;
53207;SDS011;39093;52.788;6.940;2023-08-12T01:23:44;16.33;;;11.25;;
53207;SDS011;39093;52.788;6.940;2023-08-12T01:26:11;16.77;;;10.80;;
53207;SDS011;39093;52.788;6.940;2023-08-12T01:28:40;14.45;;;10.27;;
53207;SDS011;39093;52.788;6.940;2023-08-12T01:31:09;16.67;;;10.82;;
53207;SDS011;39093;52.788;6.940;2023-08-12T01:33:50;22.77;;;11.32;;
53207;SDS011;39093;52.788;6.940;2023-08-12T01:36:22;15.20;;;11.10;;
53207;SDS011;39093;52.788;6.940;2023-08-12T01:38:54;24.98;;;10.95;;
53207;SDS011;39093;52.788;6.940;2023-08-12T01:41:24;18.92;;;11.95;;
53207;SDS011;39093;52.788;6.940;2023-08-12T01:43:52;15.65;;;10.43;;
53207;SDS011;39093;52.788;6.940;2023-08-12T01:46:21;19.25;;;11.70;;
53207;SDS011;39093;52.788;6.940;2023-08-12T01:48:48;15.35;;;11.43;;
53207;SDS011;39093;52.788;6.940;2023-08-12T01:51:15;16.73;;;10.23;;
53207;SDS011;39093;52.788;6.940;2023-08-12T01:53:42;19.27;;;10.82;;
53207;SDS011;39093;52.788;6.940;2023-08-12T01:56:09;17.40;;;11.52;;
53207;SDS011;39093;52.788;6.940;2023-08-12T01:58:36;15.52;;;10.98;;
53207;SDS011;39093;52.788;6.940;2023-08-12T02:01:03;21.75;;;11.80;;
53207;SDS011;39093;52.788;6.940;2023-08-12T02:03:30;16.10;;;9.43;;
53207;SDS011;39093;52.788;6.940;2023-08-12T02:05:57;16.88;;;11.48;;
53207;SDS011;39093;52.788;6.940;2023-08-12T02:08:24;17.77;;;11.07;;
53207;SDS011;39093;52.788;6.940;2023-08-12T02:10:51;15.57;;;10.82;;
53207;SDS011;39093;52.788;6.940;2023-08-12T02:13:18;15.50;;;11.32;;
53207;SDS011;39093;52.788;6.940;2023-08-12T02:15:45;20.02;;;11.98;;
53207;SDS011;39093;52.788;6.940;2023-08-12T02:18:12;18.30;;;12.00;;
53207;SDS011;39093;52.788;6.940;2023-08-12T02:20:42;19.50;;;13.27;;
53207;SDS011;39093;52.788;6.940;2023-08-12T02:23:09;18.80;;;11.98;;
53207;SDS011;39093;52.788;6.940;2023-08-12T02:25:36;21.50;;;12.00;;
53207;SDS011;39093;52.788;6.940;2023-08-12T02:28:03;15.98;;;12.13;;
53207;SDS011;39093;52.788;6.940;2023-08-12T02:30:30;24.60;;;12.73;;
53207;SDS011;39093;52.788;6.940;2023-08-12T02:32:57;20.63;;;12.43;;
53207;SDS011;39093;52.788;6.940;2023-08-12T02:35:27;18.30;;;11.85;;
53207;SDS011;39093;52.788;6.940;2023-08-12T02:37:53;20.50;;;13.00;;
53207;SDS011;39093;52.788;6.940;2023-08-12T02:40:20;22.67;;;12.15;;
53207;SDS011;39093;52.788;6.940;2023-08-12T02:42:47;23.10;;;12.65;;
53207;SDS011;39093;52.788;6.940;2023-08-12T02:45:14;26.25;;;13.60;;
53207;SDS011;39093;52.788;6.940;2023-08-12T02:47:41;18.63;;;11.63;;
53207;SDS011;39093;52.788;6.940;2023-08-12T02:50:08;17.60;;;11.27;;
53207;SDS011;39093;52.788;6.940;2023-08-12T02:52:35;19.33;;;12.18;;
53207;SDS011;39093;52.788;6.940;2023-08-12T02:55:02;20.63;;;12.88;;
53207;SDS011;39093;52.788;6.940;2023-08-12T02:57:29;17.95;;;12.50;;
53207;SDS011;39093;52.788;6.940;2023-08-12T02:59:56;18.00;;;12.55;;
53207;SDS011;39093;52.788;6.940;2023-08-12T03:02:23;21.85;;;12.35;;
53207;SDS011;39093;52.788;6.940;2023-08-12T03:04:53;20.75;;;12.95;;
53207;SDS011;39093;52.788;6.940;2023-08-12T03:07:20;20.50;;;13.32;;
53207;SDS011;39093;52.788;6.940;2023-08-12T03:09:47;19.48;;;13.82;;
53207;SDS011;39093;52.788;6.940;2023-08-12T03:12:14;29.60;;;14.15;;
53207;SDS011;39093;52.788;6.940;2023-08-12T03:14:41;22.63;;;14.68;;
53207;SDS011;39093;52.788;6.940;2023-08-12T03:17:08;24.77;;;14.52;;
53207;SDS011;39093;52.788;6.940;2023-08-12T03:19:35;22.40;;;14.18;;
53207;SDS011;39093;52.788;6.940;2023-08-12T03:22:02;23.92;;;14.15;;
53207;SDS011;39093;52.788;6.940;2023-08-12T03:24:29;21.88;;;14.30;;
53207;SDS011;39093;52.788;6.940;2023-08-12T03:26:56;20.25;;;13.73;;
53207;SDS011;39093;52.788;6.940;2023-08-12T03:29:23;26.15;;;14.70;;
53207;SDS011;39093;52.788;6.940;2023-08-12T03:31:50;18.75;;;12.18;;
53207;SDS011;39093;52.788;6.940;2023-08-12T03:34:17;21.13;;;13.65;;
53207;SDS011;39093;52.788;6.940;2023-08-12T03:36:44;19.58;;;12.70;;
53207;SDS011;39093;52.788;6.940;2023-08-12T03:39:14;22.10;;;13.93;;
53207;SDS011;39093;52.788;6.940;2023-08-12T03:41:41;20.08;;;13.95;;
53207;SDS011;39093;52.788;6.940;2023-08-12T03:44:09;17.75;;;14.05;;
53207;SDS011;39093;52.788;6.940;2023-08-12T03:46:35;23.13;;;14.15;;
53207;SDS011;39093;52.788;6.940;2023-08-12T03:49:02;21.52;;;14.43;;
53207;SDS011;39093;52.788;6.940;2023-08-12T03:51:29;22.77;;;15.10;;
53207;SDS011;39093;52.788;6.940;2023-08-12T03:53:56;23.13;;;14.75;;
53207;SDS011;39093;52.788;6.940;2023-08-12T03:56:24;22.92;;;15.52;;
53207;SDS011;39093;52.788;6.940;2023-08-12T03:58:51;18.85;;;14.52;;
53207;SDS011;39093;52.788;6.940;2023-08-12T04:01:18;19.25;;;12.40;;
53207;SDS011;39093;52.788;6.940;2023-08-12T04:03:45;25.08;;;14.30;;
53207;SDS011;39093;52.788;6.940;2023-08-12T04:06:12;20.05;;;13.90;;
53207;SDS011;39093;52.788;6.940;2023-08-12T04:08:39;17.48;;;13.15;;
53207;SDS011;39093;52.788;6.940;2023-08-12T04:11:06;26.00;;;15.45;;
53207;SDS011;39093;52.788;6.940;2023-08-12T04:13:33;18.23;;;13.15;;
53207;SDS011;39093;52.788;6.940;2023-08-12T04:16:00;20.52;;;15.15;;
53207;SDS011;39093;52.788;6.940;2023-08-12T04:18:27;21.65;;;15.02;;
53207;SDS011;39093;52.788;6.940;2023-08-12T04:20:53;20.70;;;14.70;;
53207;SDS011;39093;52.788;6.940;2023-08-12T04:23:22;23.33;;;15.13;;
53207;SDS011;39093;52.788;6.940;2023-08-12T04:25:49;25.88;;;16.77;;
53207;SDS011;39093;52.788;6.940;2023-08-12T04:28:18;23.48;;;15.05;;
53207;SDS011;39093;52.788;6.940;2023-08-12T04:30:46;24.60;;;15.05;;
53207;SDS011;39093;52.788;6.940;2023-08-12T04:33:14;16.52;;;13.02;;
53207;SDS011;39093;52.788;6.940;2023-08-12T04:35:41;19.70;;;14.68;;
53207;SDS011;39093;52.788;6.940;2023-08-12T04:38:08;31.40;;;17.20;;
53207;SDS011;39093;52.788;6.940;2023-08-12T04:40:38;25.33;;;15.98;;
53207;SDS011;39093;52.788;6.940;2023-08-12T04:43:08;24.60;;;16.90;;
53207;SDS011;39093;52.788;6.940;2023-08-12T04:45:36;16.27;;;13.02;;
53207;SDS011;39093;52.788;6.940;2023-08-12T04:48:04;25.25;;;16.73;;
53207;SDS011;39093;52.788;6.940;2023-08-12T04:50:32;22.45;;;15.70;;
53207;SDS011;39093;52.788;6.940;2023-08-12T04:53:01;19.48;;;16.08;;
53207;SDS011;39093;52.788;6.940;2023-08-12T04:55:28;20.13;;;15.45;;
53207;SDS011;39093;52.788;6.940;2023-08-12T04:57:55;20.27;;;15.70;;
53207;SDS011;39093;52.788;6.940;2023-08-12T05:00:22;24.40;;;17.58;;
53207;SDS011;39093;52.788;6.940;2023-08-12T05:02:49;23.48;;;16.05;;
53207;SDS011;39093;52.788;6.940;2023-08-12T05:05:16;24.77;;;16.70;;
53207;SDS011;39093;52.788;6.940;2023-08-12T05:07:45;21.52;;;14.73;;
53207;SDS011;39093;52.788;6.940;2023-08-12T05:10:15;34.15;;;17.98;;
53207;SDS011;39093;52.788;6.940;2023-08-12T05:12:43;25.15;;;15.95;;
53207;SDS011;39093;52.788;6.940;2023-08-12T05:15:10;25.42;;;19.02;;
53207;SDS011;39093;52.788;6.940;2023-08-12T05:17:37;30.30;;;18.42;;
53207;SDS011;39093;52.788;6.940;2023-08-12T05:20:05;25.17;;;17.83;;
53207;SDS011;39093;52.788;6.940;2023-08-12T05:22:32;30.92;;;18.13;;
53207;SDS011;39093;52.788;6.940;2023-08-12T05:24:59;28.00;;;18.90;;
53207;SDS011;39093;52.788;6.940;2023-08-12T05:27:26;29.75;;;18.48;;
53207;SDS011;39093;52.788;6.940;2023-08-12T05:29:53;22.83;;;17.75;;
53207;SDS011;39093;52.788;6.940;2023-08-12T05:32:20;27.27;;;19.77;;
53207;SDS011;39093;52.788;6.940;2023-08-12T05:34:49;23.50;;;15.23;;
53207;SDS011;39093;52.788;6.940;2023-08-12T05:37:18;24.02;;;18.00;;
53207;SDS011;39093;52.788;6.940;2023-08-12T05:39:45;26.95;;;18.13;;
53207;SDS011;39093;52.788;6.940;2023-08-12T05:42:12;27.65;;;17.13;;
53207;SDS011;39093;52.788;6.940;2023-08-12T05:44:40;28.27;;;19.17;;
53207;SDS011;39093;52.788;6.940;2023-08-12T05:47:08;31.45;;;21.08;;
53207;SDS011;39093;52.788;6.940;2023-08-12T05:49:35;27.15;;;19.85;;
53207;SDS011;39093;52.788;6.940;2023-08-12T05:52:02;34.38;;;21.65;;
53207;SDS011;39093;52.788;6.940;2023-08-12T05:54:29;29.73;;;20.00;;
53207;SDS011;39093;52.788;6.940;2023-08-12T05:56:56;26.95;;;21.45;;
53207;SDS011;39093;52.788;6.940;2023-08-12T05:59:23;33.15;;;23.77;;
53207;SDS011;39093;52.788;6.940;2023-08-12T06:01:53;32.88;;;22.58;;
53207;SDS011;39093;52.788;6.940;2023-08-12T06:04:22;33.88;;;22.45;;
53207;SDS011;39093;52.788;6.940;2023-08-12T06:06:49;32.67;;;23.33;;
53207;SDS011;39093;52.788;6.940;2023-08-12T06:09:15;28.98;;;21.33;;
53207;SDS011;39093;52.788;6.940;2023-08-12T06:11:42;35.92;;;24.10;;
53207;SDS011;39093;52.788;6.940;2023-08-12T06:14:09;28.55;;;22.27;;
53207;SDS011;39093;52.788;6.940;2023-08-12T06:16:36;34.30;;;23.65;;
53207;SDS011;39093;52.788;6.940;2023-08-12T06:19:03;28.77;;;21.38;;
53207;SDS011;39093;52.788;6.940;2023-08-12T06:21:30;35.33;;;23.52;;
53207;SDS011;39093;52.788;6.940;2023-08-12T06:23:57;33.53;;;23.05;;
53207;SDS011;39093;52.788;6.940;2023-08-12T06:26:24;32.67;;;23.77;;
53207;SDS011;39093;52.788;6.940;2023-08-12T06:28:51;29.45;;;21.42;;
53207;SDS011;39093;52.788;6.940;2023-08-12T06:31:18;37.00;;;24.08;;
53207;SDS011;39093;52.788;6.940;2023-08-12T06:33:45;28.08;;;21.02;;
53207;SDS011;39093;52.788;6.940;2023-08-12T06:36:12;29.58;;;21.00;;
53207;SDS011;39093;52.788;6.940;2023-08-12T06:38:39;28.88;;;20.00;;
53207;SDS011;39093;52.788;6.940;2023-08-12T06:41:06;26.83;;;20.95;;
53207;SDS011;39093;52.788;6.940;2023-08-12T06:43:33;31.75;;;21.58;;
53207;SDS011;39093;52.788;6.940;2023-08-12T06:46:00;31.38;;;22.83;;
53207;SDS011;39093;52.788;6.940;2023-08-12T06:48:27;32.58;;;21.80;;
53207;SDS011;39093;52.788;6.940;2023-08-12T06:50:54;27.38;;;20.73;;
53207;SDS011;39093;52.788;6.940;2023-08-12T06:53:25;28.88;;;19.50;;
53207;SDS011;39093;52.788;6.940;2023-08-12T06:55:55;31.42;;;20.15;;
53207;SDS011;39093;52.788;6.940;2023-08-12T06:58:22;28.13;;;20.10;;
53207;SDS011;39093;52.788;6.940;2023-08-12T07:00:50;32.05;;;21.55;;
53207;SDS011;39093;52.788;6.940;2023-08-12T07:03:19;26.13;;;20.10;;
53207;SDS011;39093;52.788;6.940;2023-08-12T07:05:46;21.88;;;17.75;;
53207;SDS011;39093;52.788;6.940;2023-08-12T07:08:13;31.08;;;21.38;;
53207;SDS011;39093;52.788;6.940;2023-08-12T07:10:40;23.52;;;19.35;;
53207;SDS011;39093;52.788;6.940;2023-08-12T07:13:09;27.77;;;19.38;;
53207;SDS011;39093;52.788;6.940;2023-08-12T07:15:36;26.52;;;19.75;;
53207;SDS011;39093;52.788;6.940;2023-08-12T07:18:03;25.08;;;19.42;;
53207;SDS011;39093;52.788;6.940;2023-08-12T07:20:30;26.23;;;18.63;;
53207;SDS011;39093;52.788;6.940;2023-08-12T07:22:57;29.92;;;19.20;;
53207;SDS011;39093;52.788;6.940;2023-08-12T07:25:24;25.98;;;18.67;;
53207;SDS011;39093;52.788;6.940;2023-08-12T07:27:51;23.35;;;18.88;;
53207;SDS011;39093;52.788;6.940;2023-08-12T07:30:18;28.33;;;19.40;;
53207;SDS011;39093;52.788;6.940;2023-08-12T07:32:45;24.67;;;17.52;;
53207;SDS011;39093;52.788;6.940;2023-08-12T07:35:12;23.48;;;18.15;;
53207;SDS011;39093;52.788;6.940;2023-08-12T07:37:39;25.95;;;18.70;;
53207;SDS011;39093;52.788;6.940;2023-08-12T07:40:06;27.38;;;16.88;;
53207;SDS011;39093;52.788;6.940;2023-08-12T07:42:35;25.48;;;16.48;;
53207;SDS011;39093;52.788;6.940;2023-08-12T07:45:02;23.75;;;17.02;;
53207;SDS011;39093;52.788;6.940;2023-08-12T07:47:29;23.02;;;17.42;;
53207;SDS011;39093;52.788;6.940;2023-08-12T07:49:57;19.75;;;16.23;;
53207;SDS011;39093;52.788;6.940;2023-08-12T07:52:25;27.15;;;17.58;;
53207;SDS011;39093;52.788;6.940;2023-08-12T07:54:52;22.08;;;15.77;;
53207;SDS011;39093;52.788;6.940;2023-08-12T07:57:19;22.02;;;16.15;;
53207;SDS011;39093;52.788;6.940;2023-08-12T07:59:50;23.02;;;17.63;;
53207;SDS011;39093;52.788;6.940;2023-08-12T08:02:17;21.65;;;18.48;;
53207;SDS011;39093;52.788;6.940;2023-08-12T08:04:44;25.20;;;17.48;;
53207;SDS011;39093;52.788;6.940;2023-08-12T08:07:16;28.58;;;19.60;;
53207;SDS011;39093;52.788;6.940;2023-08-12T08:09:43;28.33;;;17.30;;
53207;SDS011;39093;52.788;6.940;2023-08-12T08:12:10;21.35;;;16.25;;
53207;SDS011;39093;52.788;6.940;2023-08-12T08:14:38;23.27;;;17.17;;
53207;SDS011;39093;52.788;6.940;2023-08-12T08:17:05;28.98;;;17.63;;
53207;SDS011;39093;52.788;6.940;2023-08-12T08:19:33;22.23;;;16.17;;
53207;SDS011;39093;52.788;6.940;2023-08-12T08:21:59;20.63;;;15.88;;
53207;SDS011;39093;52.788;6.940;2023-08-12T08:24:26;20.63;;;15.90;;
53207;SDS011;39093;52.788;6.940;2023-08-12T08:26:56;18.67;;;16.05;;
53207;SDS011;39093;52.788;6.940;2023-08-12T08:29:23;22.92;;;16.70;;
53207;SDS011;39093;52.788;6.940;2023-08-12T08:31:51;24.58;;;16.85;;
53207;SDS011;39093;52.788;6.940;2023-08-12T08:34:17;27.90;;;17.00;;
53207;SDS011;39093;52.788;6.940;2023-08-12T08:36:45;25.52;;;16.23;;
53207;SDS011;39093;52.788;6.940;2023-08-12T08:39:11;27.98;;;17.90;;
53207;SDS011;39093;52.788;6.940;2023-08-12T08:41:39;27.40;;;17.55;;
53207;SDS011;39093;52.788;6.940;2023-08-12T08:44:07;25.73;;;14.98;;
53207;SDS011;39093;52.788;6.940;2023-08-12T08:46:37;21.35;;;16.02;;
53207;SDS011;39093;52.788;6.940;2023-08-12T08:49:05;23.55;;;15.52;;
53207;SDS011;39093;52.788;6.940;2023-08-12T08:51:33;22.10;;;16.35;;
53207;SDS011;39093;52.788;6.940;2023-08-12T08:54:04;23.27;;;17.88;;
53207;SDS011;39093;52.788;6.940;2023-08-12T08:56:31;23.98;;;16.58;;
53207;SDS011;39093;52.788;6.940;2023-08-12T08:59:09;35.45;;;18.92;;
53207;SDS011;39093;52.788;6.940;2023-08-12T09:01:37;21.45;;;15.50;;
53207;SDS011;39093;52.788;6.940;2023-08-12T09:04:09;22.50;;;14.93;;
53207;SDS011;39093;52.788;6.940;2023-08-12T09:06:39;23.15;;;14.55;;
53207;SDS011;39093;52.788;6.940;2023-08-12T09:09:08;23.75;;;15.63;;
53207;SDS011;39093;52.788;6.940;2023-08-12T09:11:39;23.10;;;15.98;;
53207;SDS011;39093;52.788;6.940;2023-08-12T09:14:06;22.13;;;13.32;;
53207;SDS011;39093;52.788;6.940;2023-08-12T09:16:38;34.65;;;15.73;;
53207;SDS011;39093;52.788;6.940;2023-08-12T09:19:05;19.35;;;14.27;;
53207;SDS011;39093;52.788;6.940;2023-08-12T09:21:32;28.38;;;15.40;;
53207;SDS011;39093;52.788;6.940;2023-08-12T09:24:04;32.83;;;14.10;;
53207;SDS011;39093;52.788;6.940;2023-08-12T09:26:31;23.42;;;14.65;;
53207;SDS011;39093;52.788;6.940;2023-08-12T09:28:58;22.23;;;15.02;;
53207;SDS011;39093;52.788;6.940;2023-08-12T09:31:30;22.90;;;15.98;;
53207;SDS011;39093;52.788;6.940;2023-08-12T09:34:03;29.20;;;16.25;;
53207;SDS011;39093;52.788;6.940;2023-08-12T09:36:33;40.58;;;18.98;;
53207;SDS011;39093;52.788;6.940;2023-08-12T09:39:05;17.40;;;13.25;;
53207;SDS011;39093;52.788;6.940;2023-08-12T09:41:36;29.50;;;14.40;;
53207;SDS011;39093;52.788;6.940;2023-08-12T09:44:04;23.73;;;15.68;;
53207;SDS011;39093;52.788;6.940;2023-08-12T09:46:35;18.25;;;11.57;;
53207;SDS011;39093;52.788;6.940;2023-08-12T09:49:02;23.27;;;12.57;;
53207;SDS011;39093;52.788;6.940;2023-08-12T09:51:37;41.42;;;10.23;;
53207;SDS011;39093;52.788;6.940;2023-08-12T09:54:06;19.52;;;9.30;;
53207;SDS011;39093;52.788;6.940;2023-08-12T09:56:36;34.35;;;8.60;;
53207;SDS011;39093;52.788;6.940;2023-08-12T09:59:05;15.70;;;7.70;;
53207;SDS011;39093;52.788;6.940;2023-08-12T10:01:35;11.75;;;7.20;;
53207;SDS011;39093;52.788;6.940;2023-08-12T10:04:04;12.38;;;6.80;;
53207;SDS011;39093;52.788;6.940;2023-08-12T10:06:35;13.65;;;6.88;;
53207;SDS011;39093;52.788;6.940;2023-08-12T10:09:02;16.00;;;8.10;;
53207;SDS011;39093;52.788;6.940;2023-08-12T10:11:29;7.57;;;4.88;;
53207;SDS011;39093;52.788;6.940;2023-08-12T10:13:57;18.10;;;7.85;;
53207;SDS011;39093;52.788;6.940;2023-08-12T10:16:25;20.90;;;7.85;;
53207;SDS011;39093;52.788;6.940;2023-08-12T10:18:55;11.32;;;6.35;;
53207;SDS011;39093;52.788;6.940;2023-08-12T10:21:24;87.85;;;17.33;;
53207;SDS011;39093;52.788;6.940;2023-08-12T10:23:53;59.42;;;14.60;;
53207;SDS011;39093;52.788;6.940;2023-08-12T10:26:20;65.20;;;15.32;;
53207;SDS011;39093;52.788;6.940;2023-08-12T10:28:48;15.20;;;7.60;;
53207;SDS011;39093;52.788;6.940;2023-08-12T10:31:18;15.50;;;8.32;;
53207;SDS011;39093;52.788;6.940;2023-08-12T10:33:48;53.78;;;13.35;;
53207;SDS011;39093;52.788;6.940;2023-08-12T10:36:23;93.43;;;20.00;;
53207;SDS011;39093;52.788;6.940;2023-08-12T10:38:53;97.05;;;22.08;;
53207;SDS011;39093;52.788;6.940;2023-08-12T10:41:24;115.75;;;23.58;;
53207;SDS011;39093;52.788;6.940;2023-08-12T10:43:52;87.15;;;18.92;;
53207;SDS011;39093;52.788;6.940;2023-08-12T10:46:31;26.70;;;9.90;;
53207;SDS011;39093;52.788;6.940;2023-08-12T11:02:18;36.10;;;10.77;;
53207;SDS011;39093;52.788;6.940;2023-08-12T11:04:57;43.92;;;12.68;;
53207;SDS011;39093;52.788;6.940;2023-08-12T11:12:34;19.88;;;8.40;;
53207;SDS011;39093;52.788;6.940;2023-08-12T11:15:02;84.55;;;17.98;;
53207;SDS011;39093;52.788;6.940;2023-08-12T11:20:10;22.80;;;9.27;;
53207;SDS011;39093;52.788;6.940;2023-08-12T11:22:41;22.83;;;9.70;;
53207;SDS011;39093;52.788;6.940;2023-08-12T11:25:10;15.40;;;7.82;;
53207;SDS011;39093;52.788;6.940;2023-08-12T11:27:44;7.97;;;4.45;;
53207;SDS011;39093;52.788;6.940;2023-08-12T11:30:14;6.88;;;4.32;;
53207;SDS011;39093;52.788;6.940;2023-08-12T11:32:45;5.38;;;3.03;;
53207;SDS011;39093;52.788;6.940;2023-08-12T11:35:14;3.90;;;3.15;;
53207;SDS011;39093;52.788;6.940;2023-08-12T11:37:43;3.20;;;2.67;;
53207;SDS011;39093;52.788;6.940;2023-08-12T11:40:12;4.55;;;2.10;;
53207;SDS011;39093;52.788;6.940;2023-08-12T11:42:45;2.63;;;1.60;;
53207;SDS011;39093;52.788;6.940;2023-08-12T11:45:15;2.20;;;1.60;;
53207;SDS011;39093;52.788;6.940;2023-08-12T11:47:44;1.70;;;1.60;;
53207;SDS011;39093;52.788;6.940;2023-08-12T11:50:13;4.57;;;2.35;;
53207;SDS011;39093;52.788;6.940;2023-08-12T11:52:40;1.60;;;1.15;;
53207;SDS011;39093;52.788;6.940;2023-08-12T11:55:07;3.42;;;2.35;;
53207;SDS011;39093;52.788;6.940;2023-08-12T11:57:35;4.82;;;1.92;;
53207;SDS011;39093;52.788;6.940;2023-08-12T12:00:04;3.92;;;2.72;;
53207;SDS011;39093;52.788;6.940;2023-08-12T12:02:44;2.40;;;1.77;;
53207;SDS011;39093;52.788;6.940;2023-08-12T12:05:15;1.50;;;1.40;;
53207;SDS011;39093;52.788;6.940;2023-08-12T12:07:47;1.20;;;1.10;;
53207;SDS011;39093;52.788;6.940;2023-08-12T12:10:34;1.20;;;1.10;;
53207;SDS011;39093;52.788;6.940;2023-08-12T12:13:02;1.88;;;1.15;;
53207;SDS011;39093;52.788;6.940;2023-08-12T12:15:31;1.10;;;1.00;;
53207;SDS011;39093;52.788;6.940;2023-08-12T12:18:04;1.67;;;1.00;;
53207;SDS011;39093;52.788;6.940;2023-08-12T12:23:08;0.98;;;0.93;;
53207;SDS011;39093;52.788;6.940;2023-08-12T12:25:34;1.40;;;0.80;;
53207;SDS011;39093;52.788;6.940;2023-08-12T12:28:02;1.00;;;1.00;;
53207;SDS011;39093;52.788;6.940;2023-08-12T12:30:29;1.27;;;1.00;;
53207;SDS011;39093;52.788;6.940;2023-08-12T12:32:56;1.40;;;0.90;;
53207;SDS011;39093;52.788;6.940;2023-08-12T12:35:23;1.95;;;1.10;;
53207;SDS011;39093;52.788;6.940;2023-08-12T12:37:50;2.13;;;0.90;;
53207;SDS011;39093;52.788;6.940;2023-08-12T12:40:17;0.98;;;0.90;;
53207;SDS011;39093;52.788;6.940;2023-08-12T12:42:45;3.40;;;1.20;;
53207;SDS011;39093;52.788;6.940;2023-08-12T12:45:12;1.50;;;1.30;;
53207;SDS011;39093;52.788;6.940;2023-08-12T12:47:39;2.05;;;1.30;;
53207;SDS011;39093;52.788;6.940;2023-08-12T12:50:06;1.55;;;1.10;;
53207;SDS011;39093;52.788;6.940;2023-08-12T12:52:33;0.57;;;0.57;;
53207;SDS011;39093;52.788;6.940;2023-08-12T12:55:00;1.73;;;0.80;;
53207;SDS011;39093;52.788;6.940;2023-08-12T12:57:30;2.95;;;1.20;;
53207;SDS011;39093;52.788;6.940;2023-08-12T12:59:57;1.00;;;0.90;;
53207;SDS011;39093;52.788;6.940;2023-08-12T13:02:24;1.17;;;0.95;;
53207;SDS011;39093;52.788;6.940;2023-08-12T13:04:51;3.35;;;1.30;;
53207;SDS011;39093;52.788;6.940;2023-08-12T13:07:18;1.10;;;1.00;;
53207;SDS011;39093;52.788;6.940;2023-08-12T13:09:45;4.00;;;1.40;;
53207;SDS011;39093;52.788;6.940;2023-08-12T13:12:12;2.78;;;1.42;;
53207;SDS011;39093;52.788;6.940;2023-08-12T13:14:42;1.77;;;1.30;;
53207;SDS011;39093;52.788;6.940;2023-08-12T13:17:09;1.50;;;0.80;;
53207;SDS011;39093;52.788;6.940;2023-08-12T13:19:36;2.85;;;1.20;;
53207;SDS011;39093;52.788;6.940;2023-08-12T13:22:03;2.78;;;1.35;;
53207;SDS011;39093;52.788;6.940;2023-08-12T13:24:30;3.47;;;1.20;;
53207;SDS011;39093;52.788;6.940;2023-08-12T13:26:58;5.88;;;1.42;;
53207;SDS011;39093;52.788;6.940;2023-08-12T13:29:25;4.40;;;1.30;;
53207;SDS011;39093;52.788;6.940;2023-08-12T13:31:52;4.80;;;1.42;;
53207;SDS011;39093;52.788;6.940;2023-08-12T13:34:19;4.25;;;1.40;;
53207;SDS011;39093;52.788;6.940;2023-08-12T13:36:46;4.43;;;1.38;;
53207;SDS011;39093;52.788;6.940;2023-08-12T13:39:13;6.88;;;1.67;;
53207;SDS011;39093;52.788;6.940;2023-08-12T13:41:41;8.20;;;1.50;;
53207;SDS011;39093;52.788;6.940;2023-08-12T13:44:09;6.40;;;2.03;;
53207;SDS011;39093;52.788;6.940;2023-08-12T13:46:36;8.20;;;1.42;;
53207;SDS011;39093;52.788;6.940;2023-08-12T13:49:03;3.53;;;1.42;;
53207;SDS011;39093;52.788;6.940;2023-08-12T13:51:33;6.85;;;1.80;;
53207;SDS011;39093;52.788;6.940;2023-08-12T13:54:00;6.10;;;1.67;;
53207;SDS011;39093;52.788;6.940;2023-08-12T13:56:27;4.25;;;1.60;;
53207;SDS011;39093;52.788;6.940;2023-08-12T13:58:57;4.72;;;1.83;;
53207;SDS011;39093;52.788;6.940;2023-08-12T14:01:24;6.18;;;1.77;;
53207;SDS011;39093;52.788;6.940;2023-08-12T14:03:51;8.35;;;1.83;;
53207;SDS011;39093;52.788;6.940;2023-08-12T14:06:18;4.55;;;1.50;;
53207;SDS011;39093;52.788;6.940;2023-08-12T14:08:45;4.30;;;1.70;;
53207;SDS011;39093;52.788;6.940;2023-08-12T14:11:12;4.47;;;1.42;;
53207;SDS011;39093;52.788;6.940;2023-08-12T14:13:39;11.85;;;2.20;;
53207;SDS011;39093;52.788;6.940;2023-08-12T14:16:06;5.10;;;1.75;;
53207;SDS011;39093;52.788;6.940;2023-08-12T14:18:33;6.20;;;1.75;;
53207;SDS011;39093;52.788;6.940;2023-08-12T14:21:03;7.20;;;2.00;;
53207;SDS011;39093;52.788;6.940;2023-08-12T14:23:37;6.60;;;1.73;;
53207;SDS011;39093;52.788;6.940;2023-08-12T14:26:04;6.75;;;2.17;;
53207;SDS011;39093;52.788;6.940;2023-08-12T14:28:31;3.42;;;1.42;;
53207;SDS011;39093;52.788;6.940;2023-08-12T14:30:58;7.32;;;1.70;;
53207;SDS011;39093;52.788;6.940;2023-08-12T14:33:25;7.03;;;2.05;;
53207;SDS011;39093;52.788;6.940;2023-08-12T14:35:52;6.00;;;1.65;;
53207;SDS011;39093;52.788;6.940;2023-08-12T14:38:20;7.18;;;1.65;;
53207;SDS011;39093;52.788;6.940;2023-08-12T14:40:48;5.65;;;2.03;;
53207;SDS011;39093;52.788;6.940;2023-08-12T14:43:15;6.47;;;1.90;;
53207;SDS011;39093;52.788;6.940;2023-08-12T14:45:44;4.22;;;1.52;;
53207;SDS011;39093;52.788;6.940;2023-08-12T14:48:12;6.13;;;2.00;;
53207;SDS011;39093;52.788;6.940;2023-08-12T14:50:41;7.60;;;2.10;;
53207;SDS011;39093;52.788;6.940;2023-08-12T14:53:08;8.85;;;1.90;;
53207;SDS011;39093;52.788;6.940;2023-08-12T14:55:35;9.70;;;1.98;;
53207;SDS011;39093;52.788;6.940;2023-08-12T14:58:02;9.38;;;2.08;;
53207;SDS011;39093;52.788;6.940;2023-08-12T15:00:29;5.85;;;1.95;;